Time;durP1;ratioP1;P1;durP2;ratioP2;P2;SDS_P1;SDS_P2;PMS_P1;PMS_P2;Temp;Humidity;BMP_temperature;BMP_pressure;BME280_temperature;BME280_humidity;BME280_pressure;Samples;Min_cycle;Max_cycle;Signal;HPM_P1;HPM_P2
2023/04/30 00:00:42;;;;;;;4.85;3.45;;;12.10;99.90;;;;;;5119493;28;19914;-67
2023/04/30 00:03:17;;;;;;;3.70;3.30;;;12.10;99.90;;;;;;5082187;28;20145;-68
2023/04/30 00:05:52;;;;;;;4.47;3.30;;;12.00;99.90;;;;;;5092474;28;20061;-68
2023/04/30 00:08:29;;;;;;;4.65;3.60;;;11.90;99.90;;;;;;5113016;28;20236;-68
2023/04/30 00:11:02;;;;;;;7.28;4.45;;;11.80;99.90;;;;;;5142548;28;20298;-68
2023/04/30 00:13:40;;;;;;;2.90;2.70;;;11.70;99.90;;;;;;5149392;28;20030;-67
2023/04/30 00:16:12;;;;;;;3.60;3.17;;;11.50;99.90;;;;;;5114735;28;20046;-65
2023/04/30 00:18:49;;;;;;;4.55;3.35;;;11.50;99.90;;;;;;5117239;28;20072;-67
2023/04/30 00:21:23;;;;;;;4.28;3.47;;;11.40;99.90;;;;;;5142020;28;20048;-68
2023/04/30 00:23:54;;;;;;;3.63;3.30;;;11.30;99.90;;;;;;5154430;28;20046;-67
2023/04/30 00:26:29;;;;;;;3.95;3.58;;;11.20;99.90;;;;;;5155649;28;20038;-66
2023/04/30 00:29:00;;;;;;;3.95;3.33;;;11.10;99.90;;;;;;5132579;28;20154;-66
2023/04/30 00:32:00;;;;;;;4.20;3.22;;;11.10;99.90;;;;;;5149912;28;20048;-67
2023/04/30 00:34:31;;;;;;;3.47;2.88;;;10.90;99.90;;;;;;5135984;28;20042;-68
2023/04/30 00:37:03;;;;;;;4.30;3.35;;;10.80;99.90;;;;;;5152459;28;20457;-65
2023/04/30 00:39:37;;;;;;;4.30;3.38;;;10.70;99.90;;;;;;5101581;28;20046;-65
2023/04/30 00:42:11;;;;;;;3.40;3.10;;;10.70;99.90;;;;;;5135407;28;20050;-64
2023/04/30 00:44:43;;;;;;;4.93;3.58;;;10.70;99.90;;;;;;5105324;28;20030;-62
2023/04/30 00:47:19;;;;;;;3.70;3.08;;;10.60;99.90;;;;;;5147773;28;20050;-64
2023/04/30 00:49:50;;;;;;;2.70;2.42;;;10.50;99.90;;;;;;5146704;28;20057;-68
2023/04/30 00:52:22;;;;;;;3.17;2.88;;;10.50;99.90;;;;;;5129997;28;20050;-67
2023/04/30 00:54:54;;;;;;;4.80;3.30;;;10.40;99.90;;;;;;5150610;28;20037;-68
2023/04/30 00:57:28;;;;;;;3.17;2.88;;;10.40;99.90;;;;;;5122706;28;20626;-65
2023/04/30 01:00:00;;;;;;;;;;;10.40;99.90;;;;;;5132748;28;20045;-65
2023/04/30 01:02:38;;;;;;;5.38;3.50;;;10.30;99.90;;;;;;5176289;23;19932;-67
2023/04/30 01:05:10;;;;;;;3.33;3.03;;;10.40;99.90;;;;;;5116073;28;20061;-67
2023/04/30 01:07:45;;;;;;;2.97;2.67;;;10.40;99.90;;;;;;5158536;28;20219;-68
2023/04/30 01:10:17;;;;;;;5.05;3.42;;;10.40;99.90;;;;;;5137216;28;20051;-67
2023/04/30 01:12:56;;;;;;;3.15;2.85;;;10.40;99.90;;;;;;5133361;28;20056;-66
2023/04/30 01:15:57;;;;;;;4.03;3.55;;;10.40;99.90;;;;;;5142437;28;20037;-67
2023/04/30 01:18:41;;;;;;;5.28;3.38;;;10.40;99.90;;;;;;5151058;28;20046;-66
2023/04/30 01:21:14;;;;;;;4.88;3.03;;;10.40;99.90;;;;;;5156191;28;20378;-67
2023/04/30 01:24:38;;;;;;;6.87;3.63;;;10.40;99.90;;;;;;5152186;28;20046;-64
2023/04/30 01:27:44;;;;;;;3.67;3.10;;;10.40;99.90;;;;;;5169928;28;20080;-66
2023/04/30 01:30:17;;;;;;;5.50;4.03;;;10.30;99.90;;;;;;5169662;28;20054;-66
2023/04/30 01:32:50;;;;;;;6.35;3.97;;;10.20;99.90;;;;;;5133255;28;20050;-65
2023/04/30 01:35:55;;;;;;;4.18;3.13;;;10.30;99.90;;;;;;5174300;28;20401;-68
2023/04/30 01:38:38;;;;;;;8.00;3.45;;;10.30;99.90;;;;;;5152386;28;20045;-68
2023/04/30 01:41:21;;;;;;;6.95;4.15;;;10.30;99.90;;;;;;5156162;28;20053;-66
2023/04/30 01:43:52;;;;;;;5.07;3.72;;;10.40;99.90;;;;;;5151644;28;20045;-67
2023/04/30 01:46:33;;;;;;;5.32;3.15;;;10.40;99.90;;;;;;5151563;28;20700;-68
2023/04/30 01:49:28;;;;;;;5.13;3.67;;;10.40;99.90;;;;;;5167888;28;20238;-66
2023/04/30 01:52:41;;;;;;;5.07;3.65;;;10.40;99.90;;;;;;5157343;28;20034;-64
2023/04/30 01:55:25;;;;;;;6.03;4.20;;;10.50;99.90;;;;;;5161238;28;20052;-67
2023/04/30 01:58:02;;;;;;;6.25;3.35;;;10.50;99.90;;;;;;5149696;28;20052;-68
2023/04/30 02:00:38;;;;;;;5.50;3.92;;;10.50;99.90;;;;;;5159345;28;20223;-68
2023/04/30 02:03:12;;;;;;;4.05;3.42;;;10.50;99.90;;;;;;5147306;28;20061;-66
2023/04/30 02:05:44;;;;;;;7.57;4.90;;;10.50;99.90;;;;;;5129915;28;20054;-68
2023/04/30 02:08:16;;;;;;;6.18;3.75;;;10.50;99.90;;;;;;5129336;28;20053;-67
2023/04/30 02:10:48;;;;;;;5.38;3.40;;;10.50;99.90;;;;;;5132596;28;20050;-66
2023/04/30 02:13:19;;;;;;;7.18;3.88;;;10.60;99.90;;;;;;5148185;28;20057;-69
2023/04/30 02:15:51;;;;;;;7.25;4.50;;;10.60;99.90;;;;;;5164821;28;20057;-67
2023/04/30 02:18:22;;;;;;;5.38;3.92;;;10.60;99.90;;;;;;5148571;28;20054;-68
2023/04/30 02:20:56;;;;;;;4.78;3.80;;;10.60;99.90;;;;;;5149509;28;20327;-67
2023/04/30 02:23:30;;;;;;;5.53;4.07;;;10.60;99.90;;;;;;5124744;28;20059;-67
2023/04/30 02:26:02;;;;;;;5.75;4.10;;;10.60;99.90;;;;;;5146836;28;20040;-67
2023/04/30 02:28:37;;;;;;;6.70;3.95;;;10.60;99.90;;;;;;5148646;28;20037;-69
2023/04/30 02:31:13;;;;;;;;;;;10.60;99.90;;;;;;5133887;28;20458;-68
2023/04/30 02:33:44;;;;;;;5.32;3.92;;;10.60;99.90;;;;;;5142612;28;19917;-69
2023/04/30 02:36:18;;;;;;;5.55;3.88;;;10.60;99.90;;;;;;5152198;28;20045;-66
2023/04/30 02:38:50;;;;;;;6.15;3.97;;;10.60;99.90;;;;;;5168040;28;20052;-69
2023/04/30 02:41:25;;;;;;;6.15;3.88;;;10.60;99.90;;;;;;5184670;28;20357;-64
2023/04/30 02:43:59;;;;;;;6.57;4.65;;;10.60;99.90;;;;;;5184852;28;20038;-64
2023/04/30 02:46:31;;;;;;;5.65;4.40;;;10.60;99.90;;;;;;5116502;28;20060;-67
2023/04/30 02:49:07;;;;;;;5.82;4.18;;;10.60;99.90;;;;;;5151460;28;20038;-70
2023/04/30 02:51:44;;;;;;;5.10;3.92;;;10.60;99.90;;;;;;5154750;28;20646;-68
2023/04/30 02:54:18;;;;;;;6.10;3.45;;;10.60;99.90;;;;;;5133311;28;20365;-67
2023/04/30 02:56:59;;;;;;;4.45;3.50;;;10.60;99.90;;;;;;5135277;28;20050;-69
2023/04/30 02:59:34;;;;;;;6.40;4.30;;;10.60;99.90;;;;;;5136312;28;20042;-71
2023/04/30 03:02:10;;;;;;;4.68;3.53;;;10.60;99.90;;;;;;5149887;28;20049;-70
2023/04/30 03:04:44;;;;;;;6.60;4.75;;;10.60;99.90;;;;;;5128724;28;20357;-66
2023/04/30 03:07:15;;;;;;;4.88;3.58;;;10.60;99.90;;;;;;5158860;28;20587;-70
2023/04/30 03:09:50;;;;;;;5.15;3.58;;;10.60;99.90;;;;;;5135368;28;20053;-68
2023/04/30 03:12:22;;;;;;;6.03;4.20;;;10.60;99.90;;;;;;5135322;28;20074;-69
2023/04/30 03:14:57;;;;;;;6.10;3.85;;;10.60;99.90;;;;;;5136038;28;20438;-65
2023/04/30 03:17:31;;;;;;;4.68;3.25;;;10.50;99.90;;;;;;5117131;28;20042;-66
2023/04/30 03:20:08;;;;;;;4.85;3.63;;;10.60;99.90;;;;;;5118792;28;20058;-69
2023/04/30 03:22:40;;;;;;;4.72;3.45;;;10.60;99.90;;;;;;5152004;28;20044;-67
2023/04/30 03:25:12;;;;;;;4.82;3.33;;;10.60;99.90;;;;;;5135789;28;20046;-66
2023/04/30 03:27:43;;;;;;;3.55;3.05;;;10.60;99.90;;;;;;5151875;28;20353;-68
2023/04/30 03:30:19;;;;;;;6.00;3.70;;;10.60;99.90;;;;;;5151517;28;20030;-69
2023/04/30 03:32:52;;;;;;;7.20;4.25;;;10.60;99.90;;;;;;5135343;28;20038;-69
2023/04/30 03:35:27;;;;;;;7.13;4.18;;;10.70;99.90;;;;;;5135422;28;20242;-70
2023/04/30 03:38:04;;;;;;;5.70;4.18;;;10.60;99.90;;;;;;5134664;28;20045;-66
2023/04/30 03:40:40;;;;;;;5.30;3.83;;;10.70;99.90;;;;;;5149127;28;20056;-67
2023/04/30 03:43:17;;;;;;;6.10;4.38;;;10.60;99.90;;;;;;5131386;28;20429;-65
2023/04/30 03:45:52;;;;;;;5.68;3.88;;;10.70;99.90;;;;;;5148150;28;20042;-69
2023/04/30 03:48:26;;;;;;;6.55;4.35;;;10.70;99.90;;;;;;5152238;28;20033;-68
2023/04/30 03:51:00;;;;;;;5.43;3.80;;;10.70;99.90;;;;;;5134697;28;20538;-70
2023/04/30 03:53:32;;;;;;;4.40;3.47;;;10.70;99.90;;;;;;5152453;28;20041;-70
2023/04/30 03:56:12;;;;;;;4.80;3.92;;;10.70;99.90;;;;;;5124250;28;20056;-70
2023/04/30 03:58:43;;;;;;;4.43;3.95;;;10.70;99.90;;;;;;5147203;28;20430;-70
2023/04/30 04:01:17;;;;;;;5.90;3.90;;;10.70;99.90;;;;;;5149346;28;20536;-67
2023/04/30 04:03:55;;;;;;;3.97;3.22;;;10.80;99.90;;;;;;5137258;28;20049;-68
2023/04/30 04:06:29;;;;;;;7.47;4.47;;;10.80;99.90;;;;;;5141718;28;20037;-66
2023/04/30 04:09:01;;;;;;;5.03;4.07;;;10.70;99.90;;;;;;5136777;28;20045;-69
2023/04/30 04:11:37;;;;;;;4.53;3.75;;;10.80;99.90;;;;;;5149971;28;20046;-69
2023/04/30 04:14:15;;;;;;;4.80;3.85;;;10.70;99.90;;;;;;5151346;28;20035;-67
2023/04/30 04:16:48;;;;;;;4.57;4.00;;;10.70;99.90;;;;;;5148457;28;20342;-69
2023/04/30 04:19:21;;;;;;;5.55;4.03;;;10.80;99.90;;;;;;5117802;28;20038;-69
2023/04/30 04:21:58;;;;;;;5.22;3.72;;;10.80;99.90;;;;;;5134027;28;20042;-68
2023/04/30 04:24:32;;;;;;;5.53;4.93;;;10.80;99.90;;;;;;5113275;28;20062;-69
2023/04/30 04:27:05;;;;;;;4.45;4.05;;;10.80;99.90;;;;;;5119574;28;20046;-68
2023/04/30 04:29:38;;;;;;;7.95;4.57;;;10.80;99.90;;;;;;5133114;28;20340;-69
2023/04/30 04:32:10;;;;;;;4.38;3.65;;;10.90;99.90;;;;;;5114386;28;20046;-69
2023/04/30 04:34:42;;;;;;;5.78;4.05;;;10.90;99.90;;;;;;5150509;28;20042;-67
2023/04/30 04:37:16;;;;;;;6.75;4.95;;;11.00;99.90;;;;;;5150929;28;20029;-67
2023/04/30 04:39:48;;;;;;;6.97;5.00;;;11.00;99.90;;;;;;5117904;28;20076;-67
2023/04/30 04:42:22;;;;;;;5.30;3.38;;;11.00;99.90;;;;;;5118424;28;20049;-69
2023/04/30 04:44:59;;;;;;;4.35;3.72;;;11.00;99.90;;;;;;5149080;28;20034;-66
2023/04/30 04:47:33;;;;;;;5.65;4.07;;;11.10;99.90;;;;;;5158158;28;20033;-68
2023/04/30 04:50:11;;;;;;;5.82;4.18;;;11.10;99.90;;;;;;5133515;28;20042;-70
2023/04/30 04:52:46;;;;;;;10.25;4.78;;;11.10;99.90;;;;;;5144889;28;20042;-70
2023/04/30 04:55:25;;;;;;;4.75;3.60;;;11.10;99.90;;;;;;5149856;28;20474;-68
2023/04/30 04:57:56;;;;;;;7.68;3.65;;;11.10;99.90;;;;;;5148254;28;20046;-67
2023/04/30 05:00:28;;;;;;;4.90;3.85;;;11.20;99.90;;;;;;5131744;28;20030;-67
2023/04/30 05:03:00;;;;;;;5.72;4.10;;;11.20;99.90;;;;;;5117919;28;20046;-66
2023/04/30 05:05:31;;;;;;;6.82;4.15;;;11.30;99.90;;;;;;5132761;28;20058;-68
2023/04/30 05:08:05;;;;;;;4.40;3.83;;;11.40;99.90;;;;;;5113433;28;20047;-67
2023/04/30 05:10:39;;;;;;;4.78;4.20;;;11.50;52.00;;;;;;5179457;28;20038;-67
2023/04/30 05:13:11;;;;;;;6.43;4.85;;;11.60;83.90;;;;;;5140479;28;20563;-67
2023/04/30 05:15:46;;;;;;;9.48;4.47;;;11.80;49.60;;;;;;5145262;28;20038;-67
2023/04/30 05:18:17;;;;;;;4.18;3.78;;;11.80;58.20;;;;;;5132666;28;20614;-67
2023/04/30 05:20:49;;;;;;;6.28;4.55;;;11.80;83.10;;;;;;5121635;28;20049;-71
2023/04/30 05:23:20;;;;;;;5.13;3.80;;;12.00;26.00;;;;;;5132870;28;20076;-66
2023/04/30 05:25:52;;;;;;;6.05;4.70;;;12.10;12.40;;;;;;5132734;28;20050;-70
2023/04/30 05:28:26;;;;;;;6.38;4.10;;;12.40;1.00;;;;;;5150090;28;20036;-67
2023/04/30 05:31:00;;;;;;;5.97;4.07;;;12.60;1.00;;;;;;5147469;28;20042;-68
2023/04/30 05:33:37;;;;;;;7.00;3.92;;;12.60;1.00;;;;;;5149162;28;20561;-70
2023/04/30 05:36:15;;;;;;;4.63;3.63;;;12.70;1.00;;;;;;5124292;28;20608;-69
2023/04/30 05:38:49;;;;;;;6.10;4.38;;;12.80;1.00;;;;;;5148929;28;20042;-66
2023/04/30 05:41:23;;;;;;;4.82;4.07;;;13.00;1.00;;;;;;5146554;28;20258;-69
2023/04/30 05:43:55;;;;;;;5.82;4.15;;;13.00;1.00;;;;;;5107597;28;20034;-65
2023/04/30 05:46:26;;;;;;;5.18;4.00;;;13.10;1.00;;;;;;5161984;28;20042;-68
2023/04/30 05:49:00;;;;;;;6.40;4.18;;;13.30;1.00;;;;;;5146298;28;20034;-68
2023/04/30 05:51:32;;;;;;;5.10;3.85;;;13.40;1.00;;;;;;5115375;28;20046;-68
2023/04/30 05:54:06;;;;;;;4.68;3.33;;;13.50;1.00;;;;;;5132921;28;20496;-66
2023/04/30 05:56:37;;;;;;;5.43;4.38;;;13.60;1.00;;;;;;5135511;28;20457;-68
2023/04/30 05:59:16;;;;;;;4.70;3.80;;;13.70;1.00;;;;;;5148821;28;20038;-66
2023/04/30 06:01:48;;;;;;;5.95;4.35;;;13.50;1.00;;;;;;5162459;28;20034;-67
2023/04/30 06:04:20;;;;;;;7.00;4.05;;;13.30;1.00;;;;;;5111830;28;20046;-69
2023/04/30 06:06:59;;;;;;;6.85;4.32;;;13.10;1.00;;;;;;5136298;28;20046;-69
2023/04/30 06:09:35;;;;;;;5.53;3.75;;;13.10;1.00;;;;;;5151085;28;20056;-69
2023/04/30 06:12:09;;;;;;;4.63;3.67;;;12.90;1.00;;;;;;5156699;28;20052;-65
2023/04/30 06:14:44;;;;;;;5.10;4.22;;;13.00;1.00;;;;;;5147443;28;20038;-68
2023/04/30 06:17:18;;;;;;;4.82;3.63;;;13.30;1.00;;;;;;5160292;28;20045;-65
2023/04/30 06:19:50;;;;;;;7.55;4.50;;;13.60;1.00;;;;;;5140420;28;20046;-68
2023/04/30 06:22:22;;;;;;;4.60;3.47;;;13.60;1.00;;;;;;5156102;28;20468;-68
2023/04/30 06:24:56;;;;;;;4.95;4.28;;;13.50;1.00;;;;;;5161014;28;20046;-68
2023/04/30 06:27:28;;;;;;;5.57;3.53;;;13.40;1.00;;;;;;5160136;28;20041;-66
2023/04/30 06:30:01;;;;;;;4.18;3.70;;;13.50;1.00;;;;;;5173741;28;20038;-68
2023/04/30 06:32:35;;;;;;;5.27;4.30;;;13.40;1.00;;;;;;5141745;28;20490;-69
2023/04/30 06:35:08;;;;;;;5.30;4.07;;;13.30;1.00;;;;;;5138875;28;20051;-67
2023/04/30 06:37:42;;;;;;;8.05;4.03;;;12.90;1.00;;;;;;5177766;28;20558;-70
2023/04/30 06:40:19;;;;;;;4.85;3.58;;;12.90;1.00;;;;;;5146061;28;20056;-67
2023/04/30 06:42:55;;;;;;;5.95;3.80;;;13.10;1.00;;;;;;5160341;28;20026;-68
2023/04/30 06:45:32;;;;;;;4.47;3.42;;;13.50;1.00;;;;;;5123635;28;20342;-66
2023/04/30 06:48:04;;;;;;;4.13;3.60;;;13.60;11.70;;;;;;5141562;28;20038;-69
2023/04/30 06:50:43;;;;;;;4.22;3.63;;;13.60;1.00;;;;;;5135601;28;20057;-66
2023/04/30 06:53:20;;;;;;;4.15;3.67;;;13.80;6.50;;;;;;5148831;28;20356;-71
2023/04/30 06:55:52;;;;;;;4.55;3.25;;;13.70;1.00;;;;;;5136144;28;20046;-65
2023/04/30 06:58:26;;;;;;;4.53;3.60;;;13.70;1.00;;;;;;5135774;28;20053;-69
2023/04/30 07:01:02;;;;;;;4.60;3.37;;;13.90;1.00;;;;;;5133647;28;20042;-67
2023/04/30 07:03:37;;;;;;;4.00;3.50;;;13.80;1.00;;;;;;5120937;28;20734;-68
2023/04/30 07:06:11;;;;;;;3.20;2.90;;;13.80;1.00;;;;;;5130112;28;20050;-69
2023/04/30 07:08:42;;;;;;;4.03;3.20;;;14.10;25.30;;;;;;5152508;28;20034;-67
2023/04/30 07:11:16;;;;;;;4.55;3.53;;;14.50;8.70;;;;;;5141024;28;20046;-66
2023/04/30 07:13:53;;;;;;;3.67;3.22;;;14.80;1.00;;;;;;5134802;28;20048;-68
2023/04/30 07:16:30;;;;;;;4.75;3.70;;;14.60;20.70;;;;;;5115630;28;20535;-66
2023/04/30 07:19:02;;;;;;;4.85;3.80;;;15.00;1.00;;;;;;5140695;28;20038;-69
2023/04/30 07:21:36;;;;;;;4.13;3.63;;;14.90;1.00;;;;;;5142343;28;20026;-70
2023/04/30 07:24:12;;;;;;;4.95;3.63;;;14.50;13.00;;;;;;5134903;28;20493;-70
2023/04/30 07:26:44;;;;;;;4.65;2.63;;;14.40;20.10;;;;;;5135430;28;20035;-69
2023/04/30 07:29:15;;;;;;;3.08;2.83;;;14.30;1.00;;;;;;5153498;28;20491;-69
2023/04/30 07:31:50;;;;;;;5.15;3.35;;;14.50;1.00;;;;;;5148801;28;20053;-69
2023/04/30 07:34:22;;;;;;;3.92;3.30;;;14.50;1.00;;;;;;5170976;28;20030;-62
2023/04/30 07:36:55;;;;;;;4.07;3.55;;;14.10;1.00;;;;;;5137547;28;20049;-64
2023/04/30 07:39:26;;;;;;;4.32;3.38;;;14.20;1.00;;;;;;5154903;28;20053;-67
2023/04/30 07:42:06;;;;;;;4.13;3.47;;;14.40;50.20;;;;;;5140369;28;20030;-65
2023/04/30 07:44:42;;;;;;;5.70;3.70;;;14.50;38.70;;;;;;5140026;28;20044;-64
2023/04/30 07:47:16;;;;;;;5.85;3.33;;;14.70;35.90;;;;;;5174575;28;20514;-65
2023/04/30 07:49:53;;;;;;;4.73;3.63;;;14.90;24.80;;;;;;5160627;28;20045;-64
2023/04/30 07:52:26;;;;;;;5.97;3.85;;;14.60;38.40;;;;;;5164279;28;20271;-63
2023/04/30 07:54:58;;;;;;;4.10;3.60;;;14.80;67.40;;;;;;5143550;28;20349;-64
2023/04/30 07:57:30;;;;;;;4.97;4.00;;;15.10;69.10;;;;;;5161820;28;20030;-65
2023/04/30 08:00:08;;;;;;;4.07;3.30;;;15.20;59.70;;;;;;5149507;28;20056;-71
2023/04/30 08:02:47;;;;;;;4.25;3.33;;;15.10;80.20;;;;;;5148368;28;20042;-68
2023/04/30 08:05:20;;;;;;;4.63;4.05;;;15.30;93.10;;;;;;5120524;28;20058;-70
2023/04/30 08:07:57;;;;;;;3.10;2.80;;;14.90;99.90;;;;;;5154202;28;20042;-69
2023/04/30 08:10:36;;;;;;;3.53;3.05;;;15.00;99.90;;;;;;5128078;28;20046;-69
2023/04/30 08:13:10;;;;;;;2.65;2.28;;;14.90;91.10;;;;;;5130735;28;20068;-72
2023/04/30 08:15:49;;;;;;;3.28;2.65;;;14.80;98.30;;;;;;5136115;28;20926;-70
2023/04/30 08:18:23;;;;;;;3.25;2.90;;;15.10;99.90;;;;;;5144544;28;20049;-67
2023/04/30 08:20:57;;;;;;;4.03;3.40;;;15.60;99.90;;;;;;5133697;28;20046;-69
2023/04/30 08:23:34;;;;;;;;;;;15.50;93.90;;;;;;5152304;28;20541;-67
2023/04/30 08:26:10;;;;;;;3.55;2.38;;;15.40;98.70;;;;;;5118734;28;20490;-71
2023/04/30 08:28:43;;;;;;;5.78;2.53;;;15.80;88.70;;;;;;5152710;28;20026;-67
2023/04/30 08:31:18;;;;;;;3.45;2.60;;;16.30;99.90;;;;;;5134330;28;20046;-69
2023/04/30 08:33:58;;;;;;;4.05;3.50;;;16.40;99.90;;;;;;5133198;28;20046;-70
2023/04/30 08:36:32;;;;;;;4.22;2.80;;;16.10;99.90;;;;;;5140774;28;20456;-69
2023/04/30 08:39:04;;;;;;;4.05;3.10;;;15.80;99.90;;;;;;5141806;28;20053;-69
2023/04/30 08:41:41;;;;;;;5.20;2.85;;;15.70;99.90;;;;;;5155660;28;20041;-71
2023/04/30 08:44:13;;;;;;;4.15;3.05;;;16.00;99.90;;;;;;5145775;28;20042;-63
2023/04/30 08:46:45;;;;;;;4.43;3.28;;;15.70;95.30;;;;;;5160238;28;20041;-65
2023/04/30 08:49:16;;;;;;;3.33;3.00;;;15.20;75.60;;;;;;5130494;28;20045;-64
2023/04/30 08:51:48;;;;;;;3.58;2.67;;;15.70;90.20;;;;;;5128528;28;20057;-69
2023/04/30 08:54:24;;;;;;;3.97;2.83;;;16.20;84.60;;;;;;5125555;28;20046;-69
2023/04/30 08:56:59;;;;;;;3.40;3.10;;;16.00;81.50;;;;;;5144153;28;20023;-70
2023/04/30 08:59:31;;;;;;;5.00;3.70;;;16.00;75.10;;;;;;5142099;28;20038;-67
2023/04/30 09:02:05;;;;;;;3.90;2.90;;;15.70;93.00;;;;;;5127321;28;20046;-67
2023/04/30 09:04:39;;;;;;;4.35;3.10;;;15.60;97.90;;;;;;5103430;28;20047;-68
2023/04/30 09:07:15;;;;;;;;;;;15.80;93.00;;;;;;5108991;28;20231;-66
2023/04/30 09:09:56;;;;;;;5.07;2.78;;;15.50;94.60;;;;;;5138340;28;19914;-66
2023/04/30 09:12:30;;;;;;;4.22;3.45;;;15.90;99.90;;;;;;5143403;28;20267;-68
2023/04/30 09:15:04;;;;;;;3.30;3.00;;;15.70;99.90;;;;;;5151557;28;20034;-65
2023/04/30 09:17:38;;;;;;;6.47;3.95;;;15.30;99.90;;;;;;5133400;28;20034;-70
2023/04/30 09:20:12;;;;;;;;;;;15.00;95.90;;;;;;5142715;28;20444;-68
2023/04/30 09:22:43;;;;;;;4.28;3.00;;;14.60;99.10;;;;;;5120592;28;19921;-65
2023/04/30 09:25:17;;;;;;;7.82;3.35;;;14.40;97.20;;;;;;5142604;28;20039;-69
2023/04/30 09:28:09;;;;;;;;;;;14.40;97.30;;;;;;5126423;28;20279;-68
2023/04/30 09:30:43;;;;;;;4.60;3.25;;;14.80;94.90;;;;;;5105407;28;20241;-71
2023/04/30 09:33:18;;;;;;;4.93;3.30;;;14.70;97.10;;;;;;5129862;28;20030;-68
2023/04/30 09:35:52;;;;;;;6.68;3.60;;;15.40;94.80;;;;;;5136352;28;20072;-69
2023/04/30 09:38:34;;;;;;;3.30;2.97;;;15.30;98.80;;;;;;5117175;28;20038;-67
2023/04/30 09:41:07;;;;;;;4.88;4.30;;;15.10;99.50;;;;;;5143148;28;20057;-68
2023/04/30 09:43:46;;;;;;;4.32;3.35;;;15.40;99.50;;;;;;5125595;28;20373;-67
2023/04/30 09:46:22;;;;;;;5.07;3.00;;;15.40;99.90;;;;;;5144353;28;20041;-68
2023/04/30 09:49:02;;;;;;;3.60;3.00;;;16.00;97.50;;;;;;5160809;28;20050;-72
2023/04/30 09:52:00;;;;;;;3.50;3.17;;;16.20;97.30;;;;;;5142036;28;20048;-65
2023/04/30 09:54:32;;;;;;;3.90;3.22;;;17.00;83.80;;;;;;5166708;28;20043;-71
2023/04/30 09:57:03;;;;;;;3.75;3.05;;;17.50;99.90;;;;;;5143505;28;20030;-70
2023/04/30 09:59:38;;;;;;;3.75;3.40;;;18.00;99.90;;;;;;5143676;28;20370;-69
2023/04/30 10:02:15;;;;;;;3.30;3.00;;;18.10;99.90;;;;;;5143772;28;20065;-67
2023/04/30 10:04:53;;;;;;;4.18;3.60;;;17.80;99.90;;;;;;5148424;28;20046;-70
2023/04/30 10:07:35;;;;;;;5.47;3.72;;;17.70;99.90;;;;;;5138810;28;20116;-68
2023/04/30 10:10:14;;;;;;;4.20;2.85;;;17.50;99.90;;;;;;5137218;28;20034;-67
2023/04/30 10:13:01;;;;;;;4.28;3.28;;;18.20;99.90;;;;;;5155529;28;20027;-67
2023/04/30 10:15:53;;;;;;;5.57;3.50;;;18.70;99.90;;;;;;5132743;28;20205;-67
2023/04/30 10:18:38;;;;;;;4.47;3.28;;;18.30;99.90;;;;;;5116310;28;20050;-67
2023/04/30 10:21:20;;;;;;;6.00;3.13;;;18.40;99.90;;;;;;5124755;28;20046;-67
2023/04/30 10:23:53;;;;;;;4.03;3.38;;;18.00;99.90;;;;;;5157106;28;20520;-69
2023/04/30 10:26:28;;;;;;;4.37;3.47;;;17.80;99.90;;;;;;5123911;28;20034;-68
2023/04/30 10:29:00;;;;;;;3.28;3.00;;;17.70;99.90;;;;;;5170133;28;20262;-71
2023/04/30 10:31:35;;;;;;;5.07;3.00;;;17.60;99.90;;;;;;5167168;28;20038;-70
2023/04/30 10:34:52;;;;;;;4.40;3.03;;;17.50;99.90;;;;;;5186341;28;20064;-65
2023/04/30 10:37:33;;;;;;;4.45;3.13;;;18.00;99.90;;;;;;5137987;28;20687;-64
2023/04/30 10:40:13;;;;;;;3.92;2.90;;;18.40;99.90;;;;;;5170667;28;20038;-68
2023/04/30 10:42:49;;;;;;;3.03;2.72;;;18.50;99.90;;;;;;5169938;28;20539;-67
2023/04/30 10:45:44;;;;;;;3.38;2.83;;;19.70;99.90;;;;;;5161790;28;20040;-67
2023/04/30 10:48:24;;;;;;;2.90;2.53;;;20.30;99.90;;;;;;5154227;28;20048;-68
2023/04/30 10:50:58;;;;;;;3.13;2.50;;;20.00;99.90;;;;;;5152198;28;20034;-68
2023/04/30 10:53:31;;;;;;;3.53;2.72;;;20.20;99.90;;;;;;5127639;28;20046;-67
2023/04/30 10:56:07;;;;;;;7.93;2.88;;;19.60;99.90;;;;;;5149120;28;20068;-69
2023/04/30 10:58:46;;;;;;;2.80;2.60;;;19.60;99.90;;;;;;5155648;28;20050;-67
2023/04/30 11:01:21;;;;;;;3.03;2.45;;;20.00;99.90;;;;;;5151990;28;20028;-69
2023/04/30 11:04:11;;;;;;;3.03;2.70;;;18.80;99.90;;;;;;5154997;28;20304;-69
2023/04/30 11:06:54;;;;;;;3.58;2.75;;;17.80;99.90;;;;;;5123344;28;20051;-69
2023/04/30 11:09:40;;;;;;;3.60;2.83;;;17.80;99.90;;;;;;5117068;28;20347;-69
2023/04/30 11:12:26;;;;;;;4.10;3.22;;;18.00;99.90;;;;;;5152722;28;20042;-69
2023/04/30 11:15:12;;;;;;;3.17;2.42;;;18.60;99.90;;;;;;5140173;28;20041;-68
2023/04/30 11:17:48;;;;;;;3.92;2.92;;;19.00;99.90;;;;;;5155176;28;20042;-67
2023/04/30 11:20:23;;;;;;;2.90;2.58;;;18.00;99.90;;;;;;5135086;28;20213;-68
2023/04/30 11:23:13;;;;;;;3.25;2.95;;;18.20;99.90;;;;;;5142891;28;20035;-68
2023/04/30 11:25:50;;;;;;;3.80;3.03;;;17.80;99.90;;;;;;5153803;28;20057;-68
2023/04/30 11:28:24;;;;;;;3.78;2.90;;;17.40;99.90;;;;;;5137642;28;20034;-66
2023/04/30 11:31:05;;;;;;;4.28;3.50;;;17.20;99.90;;;;;;5167123;28;20072;-69
2023/04/30 11:33:43;;;;;;;3.65;3.35;;;16.90;99.90;;;;;;5122767;28;20050;-68
2023/04/30 11:36:16;;;;;;;3.97;2.92;;;16.50;99.90;;;;;;5155097;28;20050;-65
2023/04/30 11:38:51;;;;;;;3.20;3.00;;;17.20;99.90;;;;;;5154824;28;20030;-66
2023/04/30 11:41:26;;;;;;;;;;;17.80;99.90;;;;;;5153687;28;20057;-68
2023/04/30 11:43:59;;;;;;;4.05;2.80;;;18.00;99.90;;;;;;5121638;28;19973;-68
2023/04/30 11:46:31;;;;;;;2.80;2.60;;;18.60;99.90;;;;;;5150987;28;20034;-67
2023/04/30 11:49:02;;;;;;;2.83;2.60;;;18.40;99.90;;;;;;5121097;28;20264;-69
2023/04/30 11:51:39;;;;;;;3.55;3.13;;;18.60;99.90;;;;;;5121153;28;20584;-65
2023/04/30 11:54:13;;;;;;;3.15;2.85;;;18.80;99.90;;;;;;5138365;28;20038;-70
2023/04/30 11:56:51;;;;;;;;;;;18.90;99.90;;;;;;5121540;28;20056;-67
2023/04/30 11:59:26;;;;;;;6.57;3.28;;;18.10;99.90;;;;;;5137295;28;19909;-70
2023/04/30 12:02:01;;;;;;;5.05;3.75;;;17.70;99.90;;;;;;5149833;28;20046;-65
2023/04/30 12:04:32;;;;;;;;;;;17.40;99.90;;;;;;5127852;28;20098;-69
2023/04/30 12:07:08;;;;;;;5.90;4.28;;;17.50;99.90;;;;;;5140695;28;20130;-66
2023/04/30 12:09:59;;;;;;;4.50;3.78;;;17.60;99.90;;;;;;5137406;28;20053;-65
2023/04/30 12:12:31;;;;;;;6.95;3.28;;;16.90;99.90;;;;;;5137735;28;20046;-68
2023/04/30 12:15:27;;;;;;;4.18;3.78;;;17.10;99.90;;;;;;5153159;28;20033;-71
2023/04/30 12:18:15;;;;;;;8.10;3.75;;;17.70;99.90;;;;;;5153975;28;20037;-65
2023/04/30 12:20:56;;;;;;;3.75;3.42;;;17.90;99.90;;;;;;5153814;28;20069;-70
2023/04/30 12:23:27;;;;;;;4.07;3.65;;;18.80;99.70;;;;;;5152628;28;20053;-71
2023/04/30 12:25:59;;;;;;;3.95;2.92;;;18.10;99.90;;;;;;5150645;28;20034;-66
2023/04/30 12:28:33;;;;;;;4.60;3.50;;;18.10;99.90;;;;;;5154021;28;20054;-71
2023/04/30 12:31:05;;;;;;;5.07;3.88;;;17.90;99.90;;;;;;5134611;28;20049;-70
2023/04/30 12:33:39;;;;;;;5.55;4.60;;;17.00;99.90;;;;;;5153520;28;20038;-69
2023/04/30 12:36:12;;;;;;;4.60;4.15;;;16.50;99.90;;;;;;5120932;28;20454;-67
2023/04/30 12:38:49;;;;;;;4.85;3.60;;;16.50;99.90;;;;;;5136772;28;20053;-63
2023/04/30 12:41:21;;;;;;;4.63;3.08;;;16.70;99.90;;;;;;5167785;28;20042;-69
2023/04/30 12:44:24;;;;;;;5.75;3.25;;;17.00;99.90;;;;;;5117520;28;20319;-66
2023/04/30 12:47:05;;;;;;;4.35;3.38;;;17.40;99.90;;;;;;5113712;28;20038;-69
2023/04/30 12:49:37;;;;;;;9.85;3.35;;;17.50;99.90;;;;;;5148274;28;20029;-69
2023/04/30 12:52:11;;;;;;;7.20;3.83;;;17.90;98.60;;;;;;5135769;28;20152;-70
2023/04/30 12:54:43;;;;;;;;;;;19.00;98.20;;;;;;5135280;28;20040;-67
2023/04/30 12:57:16;;;;;;;4.72;3.58;;;19.20;99.40;;;;;;5146625;28;19924;-67
2023/04/30 12:59:51;;;;;;;4.90;4.47;;;19.20;96.10;;;;;;5150854;28;20504;-65
2023/04/30 13:02:30;;;;;;;3.20;2.90;;;18.30;97.70;;;;;;5149897;28;20045;-68
2023/04/30 13:05:02;;;;;;;5.75;4.18;;;18.10;99.90;;;;;;5130316;28;20066;-67
2023/04/30 13:07:38;;;;;;;5.15;3.60;;;18.30;99.70;;;;;;5134588;28;20050;-70
2023/04/30 13:10:12;;;;;;;4.43;3.50;;;18.20;98.70;;;;;;5151312;28;20095;-71
2023/04/30 13:12:47;;;;;;;4.50;3.60;;;17.80;99.90;;;;;;5151676;28;20054;-68
2023/04/30 13:15:20;;;;;;;5.47;3.67;;;17.40;99.90;;;;;;5128853;28;20042;-63
2023/04/30 13:17:55;;;;;;;4.82;3.75;;;17.60;99.90;;;;;;5119203;28;20042;-64
2023/04/30 13:20:28;;;;;;;3.95;3.63;;;17.40;99.90;;;;;;5132593;28;20050;-67
2023/04/30 13:23:05;;;;;;;3.90;3.55;;;16.90;99.90;;;;;;5183316;28;20032;-66
2023/04/30 13:25:37;;;;;;;5.70;3.97;;;16.90;99.90;;;;;;5152055;28;20045;-69
2023/04/30 13:28:12;;;;;;;5.22;3.80;;;16.40;99.90;;;;;;5119427;28;20053;-68
2023/04/30 13:30:46;;;;;;;5.53;3.72;;;16.50;99.90;;;;;;5163074;28;20046;-67
2023/04/30 13:33:20;;;;;;;4.50;3.58;;;16.30;99.00;;;;;;5134907;28;20046;-67
2023/04/30 13:35:51;;;;;;;4.22;3.83;;;16.40;99.90;;;;;;5151578;28;20042;-70